Vidal Junction, California
Current Conditions -  °F | °C
As of 2:52 AM on Sunday 21 Dec 2014 (Local Time) from KBLH Reporting Station
Clear Clear  
Wind Chill: 43°   Ceiling: Unl
Heat Index: 46°   Visibility: 10mi
Dew Point: 45°   Wind: 6mph
Humidity: 96%   Direction: 340°NNW
Pressure: 30.13"   Gusts: NA
Location:  34.1406°N, 114.775°W
Report Text: KBLH 211052Z AUTO 34005KT 10SM CLR 08/07 A3013 RMK AO2 SLP200 T00780072
Loading
Personal Weather Stations






























Interactive Weather Map New forecast layout! Learn more

10-Day Weather Forecast

Advertisements
Track Severe Weather on mobile